Time;durP1;ratioP1;P1;durP2;ratioP2;P2;SDS_P1;SDS_P2;PMS_P1;PMS_P2;Temp;Humidity;BMP_temperature;BMP_pressure;BME280_temperature;BME280_humidity;BME280_pressure;Samples;Min_cycle;Max_cycle;Signal;HPM_P1;HPM_P2
2022/03/26 00:00:10;;;;;;;15.23;7.30;;;;;;;8.38;44.46;100971.63;4491571;31;34792;-83
2022/03/26 00:02:37;;;;;;;16.02;7.22;;;;;;;8.40;44.26;100966.34;4492807;31;33673;-82
2022/03/26 00:05:06;;;;;;;15.32;7.20;;;;;;;8.37;44.32;100967.28;4490120;31;34335;-82
2022/03/26 00:07:33;;;;;;;15.05;6.70;;;;;;;8.33;44.36;100968.19;4478108;31;34022;-82
2022/03/26 00:10:03;;;;;;;12.35;6.15;;;;;;;8.43;43.98;100968.94;4477930;31;34148;-82
2022/03/26 00:12:31;;;;;;;16.98;6.82;;;;;;;8.49;43.82;100970.59;4491371;31;33538;-82
2022/03/26 00:14:58;;;;;;;13.23;6.50;;;;;;;8.37;43.89;100969.03;4478377;31;34245;-82
2022/03/26 00:17:26;;;;;;;16.12;6.65;;;;;;;8.24;43.94;100988.50;4490183;31;34461;-82
2022/03/26 00:19:54;;;;;;;17.12;6.87;;;;;;;8.41;43.62;100976.00;4478264;31;34173;-82
2022/03/26 00:22:22;;;;;;;16.73;7.32;;;;;;;8.33;43.99;100977.84;4493923;31;33538;-82
2022/03/26 00:24:49;;;;;;;23.12;9.48;;;;;;;8.34;43.88;100983.06;4489856;31;33806;-82
2022/03/26 00:27:17;;;;;;;20.00;7.60;;;;;;;8.09;44.69;100979.09;4478176;31;32931;-82
2022/03/26 00:29:45;;;;;;;19.42;7.20;;;;;;;8.18;44.40;100978.94;4491051;31;33447;-82
2022/03/26 00:32:13;;;;;;;16.65;7.78;;;;;;;8.14;44.43;100982.50;4479156;31;34078;-82
2022/03/26 00:34:40;;;;;;;17.92;7.78;;;;;;;8.23;44.22;100981.50;4490588;31;33929;-82
2022/03/26 00:37:08;;;;;;;15.57;7.82;;;;;;;8.08;44.85;100982.63;4478474;31;33438;-82
2022/03/26 00:39:36;;;;;;;17.90;6.82;;;;;;;7.98;45.26;100986.28;4489924;31;33531;-81
2022/03/26 00:42:04;;;;;;;14.98;6.62;;;;;;;7.78;46.07;100976.88;4477606;31;32786;-82
2022/03/26 00:44:32;;;;;;;17.35;7.87;;;;;;;7.76;46.08;100981.28;4488501;31;33782;-82
2022/03/26 00:46:59;;;;;;;12.30;6.55;;;;;;;7.84;45.77;100976.81;4462539;31;34298;-82
2022/03/26 00:49:27;;;;;;;13.20;6.50;;;;;;;7.95;45.46;100985.41;4490775;31;33768;-82
2022/03/26 00:51:55;;;;;;;19.87;7.78;;;;;;;7.96;45.18;100974.00;4478901;31;33228;-83
2022/03/26 00:54:23;;;;;;;13.60;6.90;;;;;;;7.89;45.29;100977.59;4492846;31;34801;-82
2022/03/26 00:56:51;;;;;;;17.08;7.07;;;;;;;7.73;46.01;100973.44;4465425;31;33231;-82
2022/03/26 00:59:19;;;;;;;17.10;7.43;;;;;;;7.75;46.23;100979.56;4487849;31;33974;-81
2022/03/26 01:01:46;;;;;;;15.93;7.62;;;;;;;7.75;46.16;100982.19;4475466;31;32984;-81
2022/03/26 01:04:14;;;;;;;21.48;8.05;;;;;;;7.70;46.21;100981.38;4489428;31;33668;-82
2022/03/26 01:06:42;;;;;;;16.90;7.78;;;;;;;7.55;46.60;100977.19;4488485;31;34660;-81
2022/03/26 01:09:10;;;;;;;16.05;7.10;;;;;;;7.26;47.44;100974.88;4477778;31;33893;-82
2022/03/26 01:11:38;;;;;;;17.90;6.95;;;;;;;7.55;46.53;100976.28;4478406;31;34698;-81
2022/03/26 01:14:06;;;;;;;20.77;7.60;;;;;;;7.66;45.97;100971.78;4491124;31;33815;-81
2022/03/26 01:16:33;;;;;;;19.05;7.47;;;;;;;7.48;46.46;100979.91;4476922;31;33673;-82
2022/03/26 01:19:01;;;;;;;13.32;6.55;;;;;;;7.52;46.45;100971.97;4475627;31;32287;-81
2022/03/26 01:21:29;;;;;;;15.77;6.95;;;;;;;7.55;46.11;100961.41;4474840;31;32240;-82
2022/03/26 01:23:57;;;;;;;12.10;6.25;;;;;;;7.56;46.32;100962.28;4490282;31;34793;-82
2022/03/26 01:26:25;;;;;;;18.83;6.68;;;;;;;7.60;46.38;100958.72;4475297;31;34203;-82
2022/03/26 01:28:52;;;;;;;12.05;6.10;;;;;;;7.46;46.82;100965.91;4493795;31;33266;-81
2022/03/26 01:31:22;;;;;;;14.50;6.47;;;;;;;7.34;46.85;100962.53;4489517;31;33052;-81
2022/03/26 01:33:50;;;;;;;11.77;7.00;;;;;;;7.27;47.00;100963.50;4477001;31;33834;-82
2022/03/26 01:36:18;;;;;;;18.58;6.62;;;;;;;7.36;46.88;100963.41;4488114;31;33503;-81
2022/03/26 01:38:45;;;;;;;13.85;6.10;;;;;;;7.33;46.88;100954.69;4488996;31;33679;-82
2022/03/26 01:41:13;;;;;;;16.40;6.35;;;;;;;7.41;46.55;100958.97;4477916;31;33854;-81
2022/03/26 01:43:41;;;;;;;15.38;6.37;;;;;;;7.61;46.24;100952.59;4491166;31;33338;-82
2022/03/26 01:46:10;;;;;;;21.40;6.78;;;;;;;7.34;46.82;100952.03;4488937;31;34669;-82
2022/03/26 01:48:39;;;;;;;12.43;5.97;;;;;;;7.26;47.15;100953.88;4481357;31;33470;-82
2022/03/26 01:51:16;;;;;;;13.00;6.65;;;;;;;7.36;47.20;100954.66;4490137;31;33536;-82
2022/03/26 01:53:46;;;;;;;13.90;7.20;;;;;;;7.53;46.43;100952.66;4490125;31;34525;-81
2022/03/26 01:56:15;;;;;;;13.52;6.65;;;;;;;7.41;46.62;100948.44;4487287;31;34517;-81
2022/03/26 01:58:43;;;;;;;18.45;7.53;;;;;;;7.07;47.55;100957.59;4474232;31;34190;-81
2022/03/26 02:01:12;;;;;;;16.83;7.40;;;;;;;7.09;47.71;100946.19;4491250;31;33082;-81
2022/03/26 02:03:40;;;;;;;19.70;6.65;;;;;;;6.91;48.13;100956.91;4477471;31;33055;-81
2022/03/26 02:06:08;;;;;;;13.98;7.47;;;;;;;7.03;48.22;100950.66;4490166;31;34766;-81
2022/03/26 02:08:36;;;;;;;17.00;7.35;;;;;;;6.99;48.26;100949.81;4477138;31;34302;-81
2022/03/26 02:11:03;;;;;;;18.27;6.43;;;;;;;6.73;48.77;100951.81;4488839;31;34576;-81
2022/03/26 02:13:49;;;;;;;13.30;6.72;;;;;;;6.82;48.61;100957.84;4489660;31;33831;-81
2022/03/26 02:16:16;;;;;;;15.30;7.20;;;;;;;6.78;48.48;100950.88;4489505;31;33684;-81
2022/03/26 02:18:44;;;;;;;13.27;6.60;;;;;;;6.85;48.28;100947.31;4464924;31;32719;-81
2022/03/26 02:21:12;;;;;;;19.23;7.47;;;;;;;6.95;48.04;100949.88;4481255;31;33000;-81
2022/03/26 02:23:40;;;;;;;15.00;7.82;;;;;;;6.98;48.19;100947.19;4476498;31;32686;-80
2022/03/26 02:26:08;;;;;;;13.43;7.18;;;;;;;6.93;48.35;100942.88;4494091;31;34681;-82
2022/03/26 02:28:36;;;;;;;12.30;6.65;;;;;;;6.63;49.33;100954.53;4479188;31;32913;-82
2022/03/26 02:31:04;;;;;;;12.43;6.45;;;;;;;6.88;48.38;100949.94;4479065;31;32493;-82
2022/03/26 02:33:32;;;;;;;14.52;6.05;;;;;;;7.06;47.83;100940.09;4491776;31;34289;-84
2022/03/26 02:35:59;;;;;;;12.75;6.57;;;;;;;6.97;48.04;100941.06;4478413;31;33424;-83
2022/03/26 02:38:27;;;;;;;13.80;6.90;;;;;;;6.78;48.49;100937.75;4465840;31;32797;-83
2022/03/26 02:40:55;;;;;;;12.70;6.15;;;;;;;6.82;48.37;100936.84;4478929;31;34025;-83
2022/03/26 02:43:22;;;;;;;16.92;7.20;;;;;;;6.81;48.69;100945.63;4479359;31;33265;-83
2022/03/26 02:45:50;;;;;;;20.60;7.22;;;;;;;6.86;48.46;100938.56;4491204;31;34066;-83
2022/03/26 02:48:18;;;;;;;13.77;6.10;;;;;;;6.88;48.29;100936.81;4493403;31;34522;-83
2022/03/26 02:50:48;;;;;;;16.90;7.50;;;;;;;6.89;48.44;100938.53;4479244;31;33676;-82
2022/03/26 02:53:15;;;;;;;14.95;7.35;;;;;;;6.95;48.07;100941.97;4479123;31;33004;-83
2022/03/26 02:55:44;;;;;;;17.05;8.20;;;;;;;6.61;49.01;100947.56;4470131;31;32862;-82
2022/03/26 02:58:11;;;;;;;13.15;6.22;;;;;;;6.42;49.56;100952.09;4490737;31;33600;-82
2022/03/26 03:00:39;;;;;;;17.33;6.75;;;;;;;6.65;48.91;100944.91;4492029;31;33009;-81
2022/03/26 03:03:08;;;;;;;10.90;6.22;;;;;;;6.81;48.40;100947.38;4467452;31;32798;-81
2022/03/26 03:05:37;;;;;;;12.07;5.62;;;;;;;6.46;49.29;100945.06;4478281;31;33153;-81
2022/03/26 03:08:04;;;;;;;18.27;6.65;;;;;;;6.70;48.50;100947.50;4492866;31;33900;-80
2022/03/26 03:10:32;;;;;;;12.77;6.43;;;;;;;6.51;49.27;100946.78;4495183;31;34599;-81
2022/03/26 03:13:00;;;;;;;18.90;6.80;;;;;;;6.34;49.88;100944.28;4478605;31;33986;-82
2022/03/26 03:15:28;;;;;;;17.05;6.15;;;;;;;6.25;50.07;100949.59;4492913;31;34667;-81
2022/03/26 03:17:55;;;;;;;15.13;6.53;;;;;;;6.51;49.34;100952.03;4478015;31;34251;-81
2022/03/26 03:20:23;;;;;;;8.82;5.32;;;;;;;6.41;49.55;100950.38;4479747;31;32305;-81
2022/03/26 03:22:51;;;;;;;16.55;6.72;;;;;;;6.46;49.41;100945.97;4491451;31;34138;-81
2022/03/26 03:25:19;;;;;;;10.98;6.62;;;;;;;6.49;49.45;100952.91;4491117;31;34744;-81
2022/03/26 03:27:47;;;;;;;10.82;6.45;;;;;;;6.55;49.22;100952.84;4464829;31;32691;-81
2022/03/26 03:30:14;;;;;;;19.70;7.12;;;;;;;6.19;50.20;100948.78;4490002;31;33476;-82
2022/03/26 03:32:42;;;;;;;13.93;6.03;;;;;;;6.20;50.54;100946.16;4477780;31;34566;-82
2022/03/26 03:35:10;;;;;;;11.45;6.25;;;;;;;6.19;50.79;100948.78;4489004;31;33996;-82
2022/03/26 03:37:38;;;;;;;11.40;6.15;;;;;;;6.33;49.93;100947.78;4491534;31;34475;-81
2022/03/26 03:40:06;;;;;;;15.52;6.12;;;;;;;6.34;49.68;100948.66;4478775;31;33265;-81
2022/03/26 03:42:34;;;;;;;14.02;6.18;;;;;;;6.30;49.86;100944.31;4491422;31;33437;-80
2022/03/26 03:45:03;;;;;;;12.48;6.55;;;;;;;6.37;49.58;100944.28;4477110;31;33878;-81
2022/03/26 03:47:30;;;;;;;11.63;5.93;;;;;;;6.17;50.32;100946.16;4491870;31;33924;-81
2022/03/26 03:49:59;;;;;;;13.73;6.22;;;;;;;6.26;50.10;100942.59;4493382;31;33800;-81
2022/03/26 03:52:26;;;;;;;14.48;6.43;;;;;;;6.09;50.50;100935.75;4479215;31;33860;-82
2022/03/26 03:54:54;;;;;;;15.77;6.47;;;;;;;6.46;49.43;100939.81;4479306;31;33379;-82
2022/03/26 03:57:22;;;;;;;12.10;6.00;;;;;;;6.26;49.87;100935.59;4483487;31;33555;-82
2022/03/26 03:59:49;;;;;;;11.98;5.80;;;;;;;6.45;49.26;100933.69;4482723;31;33446;-82
2022/03/26 04:02:17;;;;;;;13.30;6.78;;;;;;;6.32;49.34;100940.81;4490070;31;33781;-81
2022/03/26 04:04:46;;;;;;;10.48;5.68;;;;;;;6.24;49.77;100934.75;4476716;31;33690;-81
2022/03/26 04:07:13;;;;;;;17.25;6.82;;;;;;;6.35;49.59;100935.53;4491467;31;34106;-82
2022/03/26 04:09:41;;;;;;;13.45;6.35;;;;;;;6.13;50.23;100940.09;4491682;31;32232;-81
2022/03/26 04:12:09;;;;;;;12.50;6.30;;;;;;;6.19;50.10;100935.69;4490217;31;34204;-82
2022/03/26 04:14:43;;;;;;;9.15;5.12;;;;;;;6.08;50.15;100933.16;4488056;31;33940;-82
2022/03/26 04:17:12;;;;;;;10.15;5.62;;;;;;;6.10;50.26;100940.09;4477570;31;34041;-82
2022/03/26 04:19:40;;;;;;;11.60;5.97;;;;;;;6.15;49.97;100933.06;4475270;31;32090;-82
2022/03/26 04:22:08;;;;;;;11.07;5.60;;;;;;;6.23;49.83;100940.03;4466161;31;34141;-82
2022/03/26 04:24:36;;;;;;;12.13;6.03;;;;;;;6.15;49.96;100943.56;4475906;31;32995;-82
2022/03/26 04:27:04;;;;;;;11.07;5.40;;;;;;;6.18;49.83;100942.69;4492619;31;33288;-82
2022/03/26 04:29:32;;;;;;;11.32;5.87;;;;;;;6.15;49.81;100947.94;4489346;31;33128;-82
2022/03/26 04:32:00;;;;;;;13.30;5.68;;;;;;;6.07;49.97;100960.22;4490296;31;32762;-82
2022/03/26 04:34:27;;;;;;;12.40;6.12;;;;;;;5.97;50.38;100955.91;4478201;31;33647;-82
2022/03/26 04:36:56;;;;;;;15.90;6.03;;;;;;;6.03;50.35;100968.97;4475840;31;34211;-82
2022/03/26 04:39:26;;;;;;;18.17;5.95;;;;;;;5.93;50.63;100972.53;4479607;31;32216;-82
2022/03/26 04:41:54;;;;;;;15.85;6.57;;;;;;;5.89;50.74;100969.94;4477446;31;33134;-82
2022/03/26 04:44:21;;;;;;;12.77;6.20;;;;;;;5.80;50.97;100962.13;4462498;31;34274;-82
2022/03/26 04:46:49;;;;;;;10.82;5.40;;;;;;;5.90;50.80;100961.19;4478030;31;33497;-82
2022/03/26 04:49:17;;;;;;;11.55;5.45;;;;;;;6.00;50.37;100966.41;4491148;31;33248;-82
2022/03/26 04:51:44;;;;;;;13.57;5.85;;;;;;;5.85;50.88;100969.97;4487218;31;34620;-82
2022/03/26 04:54:12;;;;;;;13.45;6.28;;;;;;;5.88;50.81;100969.91;4477824;31;33784;-82
2022/03/26 04:56:40;;;;;;;13.65;6.50;;;;;;;5.82;51.17;100965.59;4478219;31;33661;-81
2022/03/26 04:59:07;;;;;;;13.75;6.78;;;;;;;5.94;50.72;100969.06;4476279;31;34366;-81
2022/03/26 05:01:35;;;;;;;13.65;6.68;;;;;;;5.86;50.68;100964.69;4490794;31;33593;-81
2022/03/26 05:04:03;;;;;;;16.58;7.45;;;;;;;5.43;52.14;100973.66;4476874;31;33720;-80
2022/03/26 05:06:30;;;;;;;11.77;7.37;;;;;;;5.01;53.93;100972.91;4476305;31;33937;-81
2022/03/26 05:08:58;;;;;;;11.18;6.30;;;;;;;5.78;51.99;100969.09;4489478;31;32555;-81
2022/03/26 05:11:25;;;;;;;17.95;7.28;;;;;;;6.24;50.81;100966.22;4491581;31;34756;-81
2022/03/26 05:13:53;;;;;;;16.87;7.35;;;;;;;6.11;51.07;100972.44;4488394;31;34011;-81
2022/03/26 05:16:21;;;;;;;14.25;8.25;;;;;;;5.53;52.54;100983.22;4476515;31;33817;-81
2022/03/26 05:18:48;;;;;;;16.30;8.02;;;;;;;5.72;52.11;100982.25;4490521;31;33479;-81
2022/03/26 05:21:16;;;;;;;18.95;6.97;;;;;;;5.31;53.57;100988.50;4465277;31;32739;-81
2022/03/26 05:23:44;;;;;;;17.73;7.32;;;;;;;5.74;52.56;100983.09;4463436;31;32958;-81
2022/03/26 05:26:12;;;;;;;15.38;6.80;;;;;;;5.96;52.09;100983.03;4474796;31;32877;-82
2022/03/26 05:28:39;;;;;;;15.38;8.40;;;;;;;6.25;51.47;100981.06;4466229;31;32365;-81
2022/03/26 05:31:07;;;;;;;20.33;7.70;;;;;;;6.28;51.52;100988.94;4484113;31;33341;-81
2022/03/26 05:33:35;;;;;;;17.67;7.72;;;;;;;6.14;51.38;100988.16;4478019;31;33783;-80
2022/03/26 05:36:02;;;;;;;14.25;6.47;;;;;;;6.15;52.14;100987.28;4478170;31;33260;-81
2022/03/26 05:38:31;;;;;;;15.02;7.55;;;;;;;6.68;51.53;100983.34;4487876;31;32910;-81
2022/03/26 05:40:58;;;;;;;15.05;8.25;;;;;;;6.79;50.87;100981.53;4490167;31;33432;-81
2022/03/26 05:43:26;;;;;;;15.55;7.35;;;;;;;6.89;51.14;100980.53;4476094;31;33507;-81
2022/03/26 05:45:54;;;;;;;11.98;6.28;;;;;;;7.00;50.67;100974.31;4487688;31;34052;-81
2022/03/26 05:48:22;;;;;;;12.90;6.93;;;;;;;7.13;50.28;100983.81;4475212;31;32922;-81
2022/03/26 05:50:50;;;;;;;12.73;7.50;;;;;;;7.53;50.43;100972.81;4475539;31;32818;-81
2022/03/26 05:53:18;;;;;;;16.48;7.62;;;;;;;7.69;50.31;100974.34;4478822;31;32998;-81
2022/03/26 05:55:45;;;;;;;13.82;6.50;;;;;;;7.57;49.90;100985.03;4479455;31;34267;-81
2022/03/26 05:58:14;;;;;;;22.08;7.45;;;;;;;8.09;49.48;100981.72;4479068;31;33367;-81
2022/03/26 06:00:41;;;;;;;17.70;7.72;;;;;;;8.32;49.64;100982.25;4474772;31;32139;-81
2022/03/26 06:03:10;;;;;;;14.38;7.25;;;;;;;8.50;49.12;100980.22;4481878;31;33025;-82
2022/03/26 06:05:38;;;;;;;20.40;8.07;;;;;;;8.54;49.23;100984.53;4491107;31;33559;-82
2022/03/26 06:08:07;;;;;;;21.08;7.82;;;;;;;8.67;50.18;100978.19;4477779;31;32604;-81
2022/03/26 06:10:35;;;;;;;12.80;7.97;;;;;;;8.56;49.21;100980.13;4491091;31;34855;-81
2022/03/26 06:13:03;;;;;;;17.75;7.28;;;;;;;8.61;47.27;100980.94;4491243;31;33224;-81
2022/03/26 06:15:34;;;;;;;14.60;7.25;;;;;;;8.82;46.83;100977.91;4491897;31;33807;-81
2022/03/26 06:18:12;;;;;;;16.33;6.93;;;;;;;8.86;47.18;100976.97;4479927;31;32318;-81
2022/03/26 06:20:42;;;;;;;19.27;8.77;;;;;;;9.04;46.30;100977.53;4467814;31;32556;-81
2022/03/26 06:23:10;;;;;;;16.20;7.90;;;;;;;9.20;46.91;100981.59;4491879;31;34420;-81
2022/03/26 06:25:38;;;;;;;17.30;8.40;;;;;;;9.65;46.91;100977.19;4490021;31;33843;-81
2022/03/26 06:28:06;;;;;;;14.75;6.85;;;;;;;9.56;44.40;100987.06;4489646;31;33442;-81
2022/03/26 06:30:34;;;;;;;18.50;7.40;;;;;;;10.23;44.89;100975.03;4478340;31;34464;-81
2022/03/26 06:33:02;;;;;;;13.77;7.22;;;;;;;10.23;43.00;100969.75;4467471;31;32509;-81
2022/03/26 06:35:30;;;;;;;14.95;6.90;;;;;;;10.48;42.26;100973.53;4480418;31;32952;-81
2022/03/26 06:37:57;;;;;;;13.82;7.28;;;;;;;10.83;41.78;100976.22;4490810;31;33010;-81
2022/03/26 06:40:25;;;;;;;13.23;7.32;;;;;;;11.11;40.98;100971.03;4479567;31;32582;-81
2022/03/26 06:42:53;;;;;;;18.70;8.60;;;;;;;11.36;40.46;100972.13;4494151;31;33503;-81
2022/03/26 06:45:20;;;;;;;18.62;7.93;;;;;;;11.68;39.82;100975.59;4490088;31;34496;-81
2022/03/26 06:47:48;;;;;;;12.55;6.82;;;;;;;11.95;39.34;100980.09;4490277;31;34159;-80
2022/03/26 06:50:16;;;;;;;16.85;7.62;;;;;;;12.14;38.35;100971.59;4492195;31;34116;-81
2022/03/26 06:52:43;;;;;;;20.52;7.97;;;;;;;12.51;37.38;100966.84;4479188;31;34476;-80
2022/03/26 06:55:11;;;;;;;26.60;7.57;;;;;;;12.73;37.19;100971.44;4480034;31;33712;-81
2022/03/26 06:57:41;;;;;;;16.58;8.25;;;;;;;12.82;36.99;100971.12;4489079;31;32937;-81
2022/03/26 07:00:09;;;;;;;18.42;7.97;;;;;;;13.02;36.09;100973.94;4479402;31;32716;-81
2022/03/26 07:02:37;;;;;;;20.23;8.70;;;;;;;13.32;35.66;100981.75;4489769;31;32547;-81
2022/03/26 07:05:06;;;;;;;13.27;8.02;;;;;;;13.58;35.45;100973.72;4475460;31;33512;-81
2022/03/26 07:07:33;;;;;;;18.15;9.73;;;;;;;13.90;35.04;100979.56;4476991;31;33062;-81
2022/03/26 07:10:02;;;;;;;19.08;8.70;;;;;;;14.15;35.01;100978.59;4473116;31;33698;-81
2022/03/26 07:12:30;;;;;;;21.30;8.68;;;;;;;14.19;34.79;100977.56;4469269;31;32273;-81
2022/03/26 07:14:58;;;;;;;19.45;9.05;;;;;;;14.26;33.84;100984.38;4477393;31;33742;-81
2022/03/26 07:17:27;;;;;;;17.02;8.88;;;;;;;14.44;33.82;100975.66;4476423;31;34157;-81
2022/03/26 07:19:57;;;;;;;13.93;9.00;;;;;;;14.71;34.44;100972.78;4490847;31;33922;-82
2022/03/26 07:22:34;;;;;;;18.75;9.05;;;;;;;14.74;35.00;100973.53;4476348;31;32605;-79
2022/03/26 07:25:04;;;;;;;19.98;9.68;;;;;;;15.08;33.28;100974.75;4491017;31;34451;-80
2022/03/26 07:27:32;;;;;;;17.12;9.52;;;;;;;15.13;32.50;100969.22;4475119;31;33202;-79
2022/03/26 07:30:00;;;;;;;19.37;8.68;;;;;;;15.21;32.48;100967.09;4466942;31;34175;-79
2022/03/26 07:32:28;;;;;;;20.00;9.13;;;;;;;15.70;32.25;100975.56;4473526;31;33714;-81
2022/03/26 07:34:56;;;;;;;24.85;10.63;;;;;;;15.85;31.71;100975.69;4477450;31;33526;-81
2022/03/26 07:37:24;;;;;;;18.58;10.88;;;;;;;16.01;31.32;100970.53;4477846;31;34115;-82
2022/03/26 07:39:52;;;;;;;18.70;8.00;;;;;;;16.10;30.13;100970.09;4490524;31;33887;-81
2022/03/26 07:42:20;;;;;;;17.50;9.00;;;;;;;16.38;29.54;100964.28;4490117;31;34333;-82
2022/03/26 07:44:47;;;;;;;20.10;9.70;;;;;;;16.46;29.69;100969.22;4477860;31;33012;-81
2022/03/26 07:47:15;;;;;;;16.70;7.78;;;;;;;16.55;29.78;100968.75;4492055;31;33382;-81
2022/03/26 07:49:43;;;;;;;17.25;9.27;;;;;;;16.95;28.73;100969.47;4491761;31;33395;-81
2022/03/26 07:52:11;;;;;;;18.17;8.95;;;;;;;16.88;29.07;100974.22;4475239;31;33728;-81
2022/03/26 07:54:39;;;;;;;20.25;9.75;;;;;;;17.04;27.94;100968.09;4492543;31;33813;-80
2022/03/26 07:57:08;;;;;;;17.23;9.48;;;;;;;17.06;28.53;100975.09;4488600;31;32644;-79
2022/03/26 07:59:38;;;;;;;18.25;10.23;;;;;;;17.37;28.21;100976.13;4476629;31;34195;-79
2022/03/26 08:02:06;;;;;;;25.92;10.70;;;;;;;17.40;27.71;100975.97;4475708;32;35735;-80
2022/03/26 08:04:35;;;;;;;21.23;10.23;;;;;;;17.18;27.67;100976.25;4488088;31;33399;-80
2022/03/26 08:07:10;;;;;;;20.77;10.70;;;;;;;17.13;27.21;100970.28;4488807;31;33138;-80
2022/03/26 08:09:42;;;;;;;19.12;10.77;;;;;;;17.21;27.34;100977.91;4475729;31;33410;-80
2022/03/26 08:12:23;;;;;;;19.37;9.73;;;;;;;17.43;27.95;100975.84;4477502;31;33173;-80
2022/03/26 08:15:06;;;;;;;;;;;;;;;17.35;28.94;100962.87;4488544;31;32719;-79
2022/03/26 08:17:54;;;;;;;20.08;9.98;;;;;;;17.59;28.19;100960.69;4491531;31;33256;-80
2022/03/26 08:20:29;;;;;;;19.98;8.88;;;;;;;17.89;28.33;100959.97;4489107;31;33624;-81
2022/03/26 08:22:58;;;;;;;17.42;9.20;;;;;;;18.09;26.99;100965.09;4487577;31;34368;-82
2022/03/26 08:28:12;;;;;;;19.42;9.10;;;;;;;17.99;27.03;100958.50;4478707;31;32730;-82
2022/03/26 08:30:41;;;;;;;15.30;9.30;;;;;;;17.94;26.71;100959.72;4478835;31;33828;-78
2022/03/26 08:33:09;;;;;;;17.12;8.20;;;;;;;18.50;27.55;100956.47;4465148;31;33574;-78
2022/03/26 08:35:39;;;;;;;16.58;8.10;;;;;;;18.51;26.28;100958.19;4491510;31;33774;-79
2022/03/26 08:38:08;;;;;;;13.60;7.68;;;;;;;18.80;26.12;100952.97;4477787;31;33418;-79
2022/03/26 08:40:36;;;;;;;15.30;9.20;;;;;;;19.06;25.86;100952.28;4475403;31;33103;-79
2022/03/26 08:43:06;;;;;;;15.80;7.50;;;;;;;19.22;25.95;100952.19;4478078;31;33302;-79
2022/03/26 08:45:37;;;;;;;13.70;7.60;;;;;;;19.05;26.51;100955.06;4485543;31;33777;-79
2022/03/26 08:48:05;;;;;;;11.55;7.30;;;;;;;18.74;25.28;100966.72;4477247;31;32971;-79
2022/03/26 08:50:34;;;;;;;15.95;7.60;;;;;;;19.09;25.25;100957.47;4490496;31;33510;-80
2022/03/26 08:53:02;;;;;;;14.55;8.02;;;;;;;19.54;24.91;100952.88;4479950;31;34184;-80
2022/03/26 08:55:29;;;;;;;16.50;7.03;;;;;;;19.77;24.79;100951.47;4476153;31;33558;-80
2022/03/26 08:57:57;;;;;;;16.45;8.73;;;;;;;19.63;24.97;100952.34;4479070;31;33457;-79
2022/03/26 09:00:27;;;;;;;14.80;8.35;;;;;;;19.61;24.96;100948.91;4489094;31;33653;-79
2022/03/26 09:02:55;;;;;;;20.00;9.35;;;;;;;19.84;25.18;100951.94;4477493;31;34917;-79
2022/03/26 09:05:24;;;;;;;14.87;7.90;;;;;;;19.97;24.67;100954.69;4477520;31;32879;-79
2022/03/26 09:07:52;;;;;;;15.20;8.77;;;;;;;19.24;24.75;100955.66;4476656;31;32967;-79
2022/03/26 09:10:21;;;;;;;17.73;9.00;;;;;;;19.78;24.60;100949.66;4488712;31;33259;-79
2022/03/26 09:12:49;;;;;;;12.18;8.55;;;;;;;20.20;24.72;100946.88;4485386;31;34480;-79
2022/03/26 09:15:16;;;;;;;13.75;7.68;;;;;;;19.69;25.78;100951.94;4475982;31;36126;-79
2022/03/26 09:17:44;;;;;;;14.45;7.47;;;;;;;20.07;25.06;100945.94;4489172;31;33016;-80
2022/03/26 09:20:12;;;;;;;20.83;8.00;;;;;;;20.37;23.64;100947.59;4479892;31;34584;-79
2022/03/26 09:22:39;;;;;;;14.85;7.28;;;;;;;20.39;24.01;100941.16;4489062;31;33293;-79
2022/03/26 09:25:08;;;;;;;16.37;8.27;;;;;;;20.60;23.99;100943.38;4467871;31;33116;-79
2022/03/26 09:27:36;;;;;;;13.60;7.97;;;;;;;20.59;23.71;100941.66;4477664;31;32730;-79
2022/03/26 09:30:06;;;;;;;18.60;7.97;;;;;;;20.76;24.15;100932.50;4489436;31;33435;-79
2022/03/26 09:32:35;;;;;;;14.43;7.32;;;;;;;21.04;23.94;100934.12;4477924;31;33586;-79
2022/03/26 09:35:04;;;;;;;11.52;7.47;;;;;;;20.77;23.27;100928.84;4478476;31;32551;-79
2022/03/26 09:37:31;;;;;;;11.77;7.28;;;;;;;21.16;23.30;100926.06;4483200;31;32830;-79
2022/03/26 09:39:59;;;;;;;12.27;7.47;;;;;;;21.01;24.79;100929.81;4477276;31;33741;-79
2022/03/26 09:42:27;;;;;;;10.60;7.22;;;;;;;20.90;23.14;100924.34;4477494;31;33953;-79
2022/03/26 09:44:56;;;;;;;13.70;7.70;;;;;;;21.35;22.50;100922.13;4477601;31;33326;-79
2022/03/26 09:47:24;;;;;;;12.02;7.10;;;;;;;21.48;22.87;100925.66;4479307;31;32865;-79
2022/03/26 09:49:51;;;;;;;16.40;8.88;;;;;;;21.47;24.11;100929.31;4474359;31;32948;-79
2022/03/26 09:52:19;;;;;;;14.87;7.57;;;;;;;21.45;22.42;100928.56;4476581;31;33998;-80
2022/03/26 09:54:48;;;;;;;19.37;7.53;;;;;;;21.65;22.51;100930.69;4477460;31;33994;-81
2022/03/26 09:57:15;;;;;;;11.65;7.45;;;;;;;21.53;21.64;100926.19;4478167;31;34393;-80
2022/03/26 09:59:43;;;;;;;13.27;6.45;;;;;;;21.92;21.72;100924.25;4474058;31;32484;-80
2022/03/26 10:02:11;;;;;;;11.30;6.47;;;;;;;;;;4476379;31;33808;-80
2022/03/26 10:04:40;;;;;;;15.50;6.18;;;;;;;21.75;22.11;100927.34;4485480;31;34143;-80
2022/03/26 10:07:08;;;;;;;9.45;5.87;;;;;;;22.18;20.40;100925.94;4487536;31;31881;-80
2022/03/26 10:09:36;;;;;;;10.90;6.70;;;;;;;21.90;20.10;100921.69;4489114;31;33697;-80
2022/03/26 10:12:06;;;;;;;10.43;5.75;;;;;;;21.55;20.57;100921.53;4474051;31;33677;-80
2022/03/26 10:14:48;;;;;;;10.02;5.57;;;;;;;21.71;20.64;100926.69;4488664;31;33522;-80
2022/03/26 10:17:28;;;;;;;10.98;6.32;;;;;;;21.88;20.56;100920.94;4477527;31;33085;-80
2022/03/26 10:19:58;;;;;;;15.23;6.93;;;;;;;22.19;19.55;100910.66;4489156;31;33841;-80
2022/03/26 10:22:36;;;;;;;8.45;5.62;;;;;;;22.06;19.05;100904.41;4476962;31;34544;-79
2022/03/26 10:25:04;;;;;;;10.48;5.75;;;;;;;21.86;19.10;100914.81;4475468;31;33003;-80
2022/03/26 10:27:40;;;;;;;14.82;5.12;;;;;;;22.03;18.15;100910.91;4490601;31;33538;-80
2022/03/26 10:30:11;;;;;;;7.03;5.18;;;;;;;22.22;18.73;100908.59;4464535;31;32704;-80
2022/03/26 10:32:43;;;;;;;8.27;5.72;;;;;;;22.27;18.40;100908.25;4477464;31;33038;-80
2022/03/26 10:35:21;;;;;;;8.30;5.47;;;;;;;22.44;18.52;100893.50;4485418;31;33612;-80
2022/03/26 10:38:00;;;;;;;7.87;4.80;;;;;;;22.24;18.46;100898.56;4489882;31;33318;-80
2022/03/26 10:40:29;;;;;;;13.13;5.90;;;;;;;22.54;17.41;100902.59;4473824;31;33342;-80
2022/03/26 10:43:07;;;;;;;11.95;6.43;;;;;;;22.89;17.67;100896.38;4490519;31;33355;-80
2022/03/26 10:45:37;;;;;;;13.65;6.25;;;;;;;23.11;18.40;100891.00;4475151;31;32512;-80
2022/03/26 10:48:09;;;;;;;10.13;5.82;;;;;;;23.12;17.35;100895.44;4478993;31;32959;-81
2022/03/26 10:50:37;;;;;;;9.85;6.45;;;;;;;22.64;17.73;100889.28;4479592;31;32892;-80
2022/03/26 10:53:06;;;;;;;11.18;6.40;;;;;;;22.86;17.93;100883.09;4478233;31;33703;-80
2022/03/26 10:55:36;;;;;;;9.35;6.70;;;;;;;22.66;17.68;100877.44;4490220;31;34635;-80
2022/03/26 10:58:07;;;;;;;10.63;6.97;;;;;;;23.40;17.02;100877.91;4492569;31;32212;-80
2022/03/26 11:00:35;;;;;;;11.15;6.20;;;;;;;23.07;17.92;100867.97;4489592;31;33452;-80
2022/03/26 11:03:03;;;;;;;12.15;6.97;;;;;;;23.30;17.42;100867.97;4478942;31;33423;-80
2022/03/26 11:05:32;;;;;;;16.58;8.07;;;;;;;23.54;17.28;100873.22;4478813;31;33479;-80
2022/03/26 11:08:01;;;;;;;9.00;6.35;;;;;;;23.44;17.68;100865.03;4492076;31;33789;-80
2022/03/26 11:10:30;;;;;;;12.55;6.53;;;;;;;23.09;17.87;100857.94;4478577;31;33344;-80
2022/03/26 11:12:59;;;;;;;11.75;6.65;;;;;;;22.71;20.03;100860.94;4491474;31;33747;-79
2022/03/26 11:15:31;;;;;;;10.60;5.82;;;;;;;23.24;18.08;100862.09;4475184;31;33850;-80
2022/03/26 11:18:14;;;;;;;15.57;7.35;;;;;;;23.46;17.34;100858.56;4477633;31;33755;-80
2022/03/26 11:20:52;;;;;;;16.75;7.90;;;;;;;23.34;17.55;100861.38;4490330;31;33658;-81
2022/03/26 11:23:29;;;;;;;14.80;7.35;;;;;;;23.37;16.79;100844.97;4493669;31;33292;-80
2022/03/26 11:26:45;;;;;;;14.23;7.00;;;;;;;22.90;17.26;100846.91;4490022;31;33884;-80
2022/03/26 11:29:31;;;;;;;12.48;6.65;;;;;;;22.85;17.76;100843.69;4464618;31;33062;-80
2022/03/26 11:32:22;;;;;;;13.20;7.60;;;;;;;22.49;17.43;100846.41;4493478;31;34708;-80